Time;durP1;ratioP1;P1;durP2;ratioP2;P2;SDS_P1;SDS_P2;PMS_P1;PMS_P2;Temp;Humidity;BMP_temperature;BMP_pressure;BME280_temperature;BME280_humidity;BME280_pressure;Samples;Min_cycle;Max_cycle;Signal;HPM_P1;HPM_P2
2022/06/17 00:01:46;;;;;;;5.47;3.38;;;;;;;12.54;100.00;101708.56;5032692;28;20426;-88
2022/06/17 00:04:20;;;;;;;6.22;3.47;;;;;;;12.50;100.00;101702.84;5033197;28;20419;-87
2022/06/17 00:06:51;;;;;;;9.75;3.60;;;;;;;12.51;100.00;101720.03;5032673;28;20429;-89
2022/06/17 00:09:22;;;;;;;7.47;3.35;;;;;;;12.55;100.00;101715.66;5030032;28;20433;-86
2022/06/17 00:11:56;;;;;;;6.05;3.45;;;;;;;12.45;100.00;101716.47;5043214;28;20426;-89
2022/06/17 00:14:28;;;;;;;8.43;3.67;;;;;;;12.55;100.00;101721.13;5032332;28;20440;-88
2022/06/17 00:17:03;;;;;;;6.03;3.40;;;;;;;12.55;100.00;101719.25;5034341;28;20430;-89
2022/06/17 00:19:37;;;;;;;7.13;3.60;;;;;;;12.57;100.00;101721.69;5025610;28;20415;-87
2022/06/17 00:22:10;;;;;;;6.15;3.30;;;;;;;12.62;100.00;101713.50;5034448;28;20415;-87
2022/06/17 00:24:43;;;;;;;7.20;3.72;;;;;;;12.51;100.00;101723.59;5035310;28;20439;-88
2022/06/17 00:27:13;;;;;;;8.10;3.65;;;;;;;12.49;100.00;101733.94;5032428;28;20430;-90
2022/06/17 00:29:42;;;;;;;6.95;3.88;;;;;;;12.37;100.00;101741.53;5032987;28;20435;-88
2022/06/17 00:32:10;;;;;;;7.43;4.13;;;;;;;12.28;100.00;101733.03;5032917;28;20422;-87
2022/06/17 00:34:38;;;;;;;7.00;3.80;;;;;;;12.35;100.00;101747.25;5021746;28;20440;-87
2022/06/17 00:37:12;;;;;;;9.90;3.80;;;;;;;12.20;100.00;101736.28;5028682;28;20427;-87
2022/06/17 00:39:45;;;;;;;10.10;4.15;;;;;;;12.16;100.00;101726.97;5032721;28;20811;-89
2022/06/17 00:42:18;;;;;;;11.90;3.72;;;;;;;12.22;100.00;101724.00;5033179;28;20411;-87
2022/06/17 00:44:57;;;;;;;19.20;4.47;;;;;;;12.19;100.00;101713.63;5030335;28;20430;-86
2022/06/17 00:47:31;;;;;;;46.88;5.95;;;;;;;12.20;100.00;101728.09;5015479;28;20454;-88
2022/06/17 00:50:15;;;;;;;25.27;4.60;;;;;;;12.11;100.00;101733.25;5027575;28;20442;-87
2022/06/17 00:52:49;;;;;;;7.28;3.88;;;;;;;12.07;100.00;101732.94;5031145;28;20427;-89
2022/06/17 00:55:28;;;;;;;7.47;4.13;;;;;;;12.04;100.00;101738.09;5040833;28;20427;-88
2022/06/17 00:58:08;;;;;;;8.23;3.80;;;;;;;12.03;100.00;101750.09;5030953;28;20764;-86
2022/06/17 01:00:44;;;;;;;6.88;3.85;;;;;;;11.96;100.00;101735.84;5022969;28;20435;-88
2022/06/17 01:03:21;;;;;;;7.53;3.85;;;;;;;11.96;100.00;101728.50;5026829;28;20431;-86
2022/06/17 01:05:53;;;;;;;9.07;4.18;;;;;;;11.95;100.00;101729.59;5040838;28;20436;-89
2022/06/17 01:11:22;;;;;;;6.78;3.90;;;;;;;11.98;100.00;101720.88;5039357;28;20433;-87
2022/06/17 01:13:56;;;;;;;6.70;3.80;;;;;;;11.97;100.00;101719.22;5032674;28;20411;-85
2022/06/17 01:16:30;;;;;;;7.70;4.00;;;;;;;11.87;100.00;101725.41;5032245;28;20431;-87
2022/06/17 01:19:13;;;;;;;6.78;4.25;;;;;;;11.88;100.00;101720.78;5030810;28;20934;-86
2022/06/17 01:21:50;;;;;;;9.30;4.70;;;;;;;11.83;100.00;101718.00;5026408;28;20429;-88
2022/06/17 01:24:25;;;;;;;8.93;4.50;;;;;;;11.91;100.00;101739.34;5041027;28;20466;-87
2022/06/17 01:26:53;;;;;;;9.43;4.63;;;;;;;11.77;100.00;101744.44;5038650;28;20421;-88
2022/06/17 01:29:21;;;;;;;7.25;4.63;;;;;;;11.74;100.00;101725.88;5032523;28;20422;-88
2022/06/17 01:31:55;;;;;;;8.57;5.10;;;;;;;11.68;100.00;101735.94;5031965;28;20431;-90
2022/06/17 01:34:29;;;;;;;8.68;4.88;;;;;;;11.71;100.00;101734.56;5025241;28;20461;-88
2022/06/17 01:37:03;;;;;;;8.18;4.68;;;;;;;11.75;100.00;101732.94;5023231;28;20461;-88
2022/06/17 01:39:40;;;;;;;9.35;5.10;;;;;;;11.81;100.00;101725.66;5025380;28;20435;-87
2022/06/17 01:42:14;;;;;;;8.70;5.17;;;;;;;11.76;100.00;101722.88;5029479;28;20419;-87
2022/06/17 01:44:43;;;;;;;8.65;5.22;;;;;;;11.70;100.00;101731.03;5029404;28;20909;-88
2022/06/17 01:47:22;;;;;;;9.20;5.18;;;;;;;11.71;100.00;101740.00;5026745;28;20430;-86
2022/06/17 01:50:00;;;;;;;8.73;4.90;;;;;;;11.67;100.00;101747.06;5024333;28;20440;-88
2022/06/17 01:52:39;;;;;;;9.37;5.37;;;;;;;11.67;100.00;101761.53;5023819;28;20442;-88
2022/06/17 01:55:19;;;;;;;8.32;5.13;;;;;;;11.56;100.00;101752.44;5027354;28;20431;-88
2022/06/17 01:57:58;;;;;;;8.98;5.28;;;;;;;11.60;100.00;101760.09;5027858;28;20419;-86
2022/06/17 02:00:28;;;;;;;10.10;5.72;;;;;;;11.60;100.00;101762.84;5032052;28;20434;-88
2022/06/17 02:03:07;;;;;;;9.05;5.47;;;;;;;11.58;100.00;101758.44;5036745;28;20933;-87
2022/06/17 02:05:39;;;;;;;11.98;5.85;;;;;;;11.52;100.00;101753.25;5027883;28;20450;-87
2022/06/17 02:08:13;;;;;;;9.60;5.82;;;;;;;11.58;100.00;101760.38;5023190;28;20433;-88
2022/06/17 02:10:49;;;;;;;10.50;5.50;;;;;;;11.56;100.00;101762.53;5024220;28;20427;-88
2022/06/17 02:13:23;;;;;;;11.20;5.53;;;;;;;11.55;100.00;101769.88;5039490;28;20407;-87
2022/06/17 02:16:16;;;;;;;9.48;5.60;;;;;;;11.47;100.00;101772.28;5031887;28;20426;-85
2022/06/17 02:19:12;;;;;;;8.38;5.22;;;;;;;11.52;100.00;101781.31;5043502;28;20416;-89
2022/06/17 02:21:45;;;;;;;10.27;6.15;;;;;;;11.42;100.00;101775.78;5027554;28;20435;-89
2022/06/17 02:24:20;;;;;;;9.82;6.35;;;;;;;11.42;100.00;101777.66;5038315;28;20431;-87
2022/06/17 02:26:55;;;;;;;10.02;6.25;;;;;;;11.44;100.00;101775.53;5025339;28;20427;-89
2022/06/17 02:29:25;;;;;;;10.18;6.30;;;;;;;11.46;100.00;101782.38;5034981;28;20415;-87
2022/06/17 02:32:06;;;;;;;10.00;5.95;;;;;;;11.46;100.00;101785.09;5025345;28;20431;-87
2022/06/17 02:34:42;;;;;;;11.35;6.38;;;;;;;11.43;100.00;101779.31;5025952;28;20427;-87
2022/06/17 02:37:18;;;;;;;10.65;6.20;;;;;;;11.46;100.00;101787.81;5024759;28;20422;-86
2022/06/17 02:39:53;;;;;;;9.75;6.47;;;;;;;11.49;100.00;101787.28;5022662;28;20939;-87
2022/06/17 02:42:26;;;;;;;11.73;6.72;;;;;;;11.45;100.00;101786.16;5027017;28;20425;-91
2022/06/17 02:44:58;;;;;;;10.05;6.45;;;;;;;11.45;100.00;101791.63;5032375;28;20791;-89
2022/06/17 02:47:33;;;;;;;11.00;6.70;;;;;;;11.43;100.00;101785.59;5028941;28;20795;-88
2022/06/17 02:50:07;;;;;;;11.52;7.10;;;;;;;11.34;100.00;101774.34;5035456;28;20422;-88
2022/06/17 02:52:41;;;;;;;10.32;6.68;;;;;;;11.37;100.00;101775.72;5029946;28;20910;-91
2022/06/17 02:55:19;;;;;;;11.10;6.78;;;;;;;11.39;100.00;101768.09;5030515;28;20791;-89
2022/06/17 02:58:02;;;;;;;12.25;7.18;;;;;;;11.19;100.00;101753.22;5033531;28;20434;-86
2022/06/17 03:00:36;;;;;;;12.88;7.30;;;;;;;11.32;100.00;101764.78;5027493;28;20419;-88
2022/06/17 03:03:12;;;;;;;13.30;7.50;;;;;;;11.30;100.00;101765.03;5041198;28;20430;-85
2022/06/17 03:05:44;;;;;;;12.10;7.20;;;;;;;11.25;100.00;101756.81;5023734;28;20761;-88
2022/06/17 03:08:21;;;;;;;12.43;7.22;;;;;;;11.28;100.00;101771.81;5020605;28;20440;-87
2022/06/17 03:10:58;;;;;;;12.43;6.78;;;;;;;11.22;100.00;101752.69;5037347;28;20425;-87
2022/06/17 03:13:38;;;;;;;11.40;6.68;;;;;;;11.33;100.00;101760.97;5036537;28;20430;-88
2022/06/17 03:16:14;;;;;;;11.88;7.03;;;;;;;11.33;100.00;101769.16;5035281;28;20438;-87
2022/06/17 03:18:45;;;;;;;10.80;6.72;;;;;;;11.26;100.00;101765.81;5035244;28;20430;-87
2022/06/17 03:21:23;;;;;;;11.82;6.68;;;;;;;11.29;100.00;101759.84;5035391;28;20415;-85
2022/06/17 03:24:00;;;;;;;10.35;6.75;;;;;;;11.27;100.00;101762.84;5032337;28;20428;-86
2022/06/17 03:26:42;;;;;;;11.50;7.03;;;;;;;11.24;100.00;101760.59;5030461;28;20438;-87
2022/06/17 03:29:19;;;;;;;13.90;6.85;;;;;;;11.19;100.00;101755.94;5028516;28;20427;-87
2022/06/17 03:32:01;;;;;;;11.80;6.82;;;;;;;11.25;100.00;101754.06;5029807;28;20422;-84
2022/06/17 03:34:37;;;;;;;9.93;6.30;;;;;;;11.32;100.00;101757.41;5032690;28;20430;-86
2022/06/17 03:37:18;;;;;;;10.18;6.45;;;;;;;11.30;100.00;101750.59;5034294;28;20887;-86
2022/06/17 03:39:59;;;;;;;12.27;6.50;;;;;;;11.36;100.00;101747.63;5032513;28;20429;-86
2022/06/17 03:42:42;;;;;;;11.95;6.63;;;;;;;11.34;100.00;101757.97;5032164;28;20422;-85
2022/06/17 03:45:22;;;;;;;10.35;6.18;;;;;;;11.41;100.00;101755.06;5046338;28;20418;-86
2022/06/17 03:48:03;;;;;;;11.27;6.80;;;;;;;11.43;100.00;101757.53;5031966;28;20915;-86
2022/06/17 03:50:42;;;;;;;10.68;6.32;;;;;;;11.46;100.00;101759.72;5027678;28;20923;-86
2022/06/17 03:53:24;;;;;;;11.05;6.30;;;;;;;11.56;100.00;101771.53;5026417;28;20951;-86
2022/06/17 03:56:03;;;;;;;9.05;5.85;;;;;;;11.44;100.00;101757.25;5036001;28;20419;-88
2022/06/17 03:58:40;;;;;;;10.55;6.38;;;;;;;11.52;100.00;101769.59;5030343;28;20411;-85
2022/06/17 04:01:17;;;;;;;11.63;6.20;;;;;;;11.47;100.00;101753.19;5029115;28;20425;-86
2022/06/17 04:03:54;;;;;;;9.90;6.35;;;;;;;11.54;100.00;101759.25;5034348;28;20626;-86
2022/06/17 04:06:32;;;;;;;10.68;6.50;;;;;;;11.60;100.00;101762.84;5026022;28;20425;-87
2022/06/17 04:09:15;;;;;;;10.23;6.60;;;;;;;11.64;100.00;101758.50;5047590;28;20425;-86
2022/06/17 04:11:57;;;;;;;11.18;6.35;;;;;;;11.62;100.00;101756.03;5042709;28;20451;-86
2022/06/17 04:14:30;;;;;;;9.52;5.63;;;;;;;11.68;100.00;101755.00;5040460;28;20419;-86
2022/06/17 04:17:12;;;;;;;9.80;6.13;;;;;;;11.77;100.00;101751.81;5034692;28;20431;-85
2022/06/17 04:19:51;;;;;;;11.40;6.47;;;;;;;11.85;100.00;101754.84;5030354;28;20419;-86
2022/06/17 04:22:28;;;;;;;10.30;6.32;;;;;;;11.87;100.00;101757.31;5033517;28;20431;-87
2022/06/17 04:25:19;;;;;;;11.60;6.68;;;;;;;11.91;100.00;101761.16;5032152;28;20419;-85
2022/06/17 04:27:57;;;;;;;9.52;6.20;;;;;;;11.89;100.00;101761.44;5029914;28;20423;-88
2022/06/17 04:30:36;;;;;;;10.63;6.20;;;;;;;11.98;100.00;101761.78;5032674;28;20425;-86
2022/06/17 04:33:22;;;;;;;11.25;7.13;;;;;;;12.07;100.00;101765.66;5024367;28;20427;-86
2022/06/17 04:36:00;;;;;;;12.73;6.47;;;;;;;12.14;100.00;101761.88;5031143;28;20419;-87
2022/06/17 04:38:35;;;;;;;10.60;6.28;;;;;;;12.13;100.00;101744.69;5031594;28;20422;-87
2022/06/17 04:41:36;;;;;;;11.93;7.00;;;;;;;12.25;100.00;101758.16;5035031;28;20423;-88
2022/06/17 04:44:14;;;;;;;11.27;7.20;;;;;;;12.35;100.00;101765.56;5041929;28;20432;-85
2022/06/17 04:46:51;;;;;;;12.25;7.18;;;;;;;12.34;100.00;101762.00;5043768;28;20424;-88
2022/06/17 04:49:39;;;;;;;13.77;7.40;;;;;;;12.32;100.00;101756.00;5031958;28;20415;-86
2022/06/17 04:52:18;;;;;;;10.25;6.70;;;;;;;12.38;100.00;101752.19;5038241;28;20408;-86
2022/06/17 04:54:47;;;;;;;11.27;6.72;;;;;;;12.44;100.00;101758.47;5031982;28;20438;-86
2022/06/17 04:57:34;;;;;;;11.30;6.80;;;;;;;12.55;100.00;101751.16;5023753;28;20431;-86
2022/06/17 05:00:18;;;;;;;10.85;6.60;;;;;;;12.59;100.00;101755.00;5025880;28;20437;-86
2022/06/17 05:02:58;;;;;;;13.00;6.70;;;;;;;12.82;100.00;101745.53;5030486;28;20419;-87
2022/06/17 05:05:43;;;;;;;10.77;6.60;;;;;;;13.08;100.00;101746.41;5034377;28;20436;-87
2022/06/17 05:08:22;;;;;;;11.88;6.18;;;;;;;14.16;100.00;101745.56;5027221;28;20432;-85
2022/06/17 05:11:01;;;;;;;10.73;5.90;;;;;;;16.38;100.00;101744.00;5027778;28;20438;-85
2022/06/17 05:13:43;;;;;;;9.38;5.65;;;;;;;18.19;100.00;101742.91;5026255;28;20428;-83
2022/06/17 05:16:16;;;;;;;9.40;5.20;;;;;;;18.85;100.00;101748.13;5016989;28;20433;-88
2022/06/17 05:18:51;;;;;;;8.77;5.40;;;;;;;19.59;100.00;101733.13;5026566;28;20422;-86
2022/06/17 05:21:23;;;;;;;9.02;5.10;;;;;;;20.13;100.00;101744.16;5033019;28;20418;-86
2022/06/17 05:23:59;;;;;;;8.45;5.93;;;;;;;20.83;100.00;101730.53;5028656;28;20426;-87
2022/06/17 05:26:32;;;;;;;9.07;5.50;;;;;;;20.90;95.41;101725.31;5027386;28;20423;-86
2022/06/17 05:29:08;;;;;;;8.77;5.65;;;;;;;21.01;85.55;101720.28;5025410;28;20772;-90
2022/06/17 05:31:39;;;;;;;8.68;5.63;;;;;;;22.39;82.91;101713.09;5036164;28;20508;-86
2022/06/17 05:34:12;;;;;;;8.33;4.97;;;;;;;22.70;82.46;101734.09;5026991;28;20783;-87
2022/06/17 05:36:47;;;;;;;9.60;5.60;;;;;;;22.41;85.67;101731.03;5035187;28;20436;-86
2022/06/17 05:39:21;;;;;;;8.65;5.15;;;;;;;23.62;75.14;101734.28;5000873;28;20426;-86
2022/06/17 05:41:57;;;;;;;9.43;5.60;;;;;;;21.67;85.73;101738.63;5017419;28;20777;-87
2022/06/17 05:44:26;;;;;;;8.77;5.28;;;;;;;21.93;94.73;101737.75;5011646;28;20442;-87
2022/06/17 05:47:13;;;;;;;10.35;5.85;;;;;;;20.80;100.00;101747.78;5008521;28;20465;-87
2022/06/17 05:49:56;;;;;;;9.20;5.35;;;;;;;20.84;100.00;101756.22;5004515;28;20422;-88
2022/06/17 05:52:55;;;;;;;8.90;5.30;;;;;;;20.10;100.00;101766.91;5015856;28;20446;-88
2022/06/17 05:55:46;;;;;;;10.82;6.88;;;;;;;19.53;100.00;101762.81;5020789;28;20431;-85
2022/06/17 05:58:19;;;;;;;9.75;6.88;;;;;;;19.14;100.00;101769.84;5001855;28;20454;-87
2022/06/17 06:00:54;;;;;;;11.13;7.10;;;;;;;18.47;100.00;101762.19;5002365;28;20439;-89
2022/06/17 06:03:26;;;;;;;9.70;6.82;;;;;;;18.63;100.00;101770.94;5009604;28;20453;-87
2022/06/17 06:06:05;;;;;;;11.35;6.95;;;;;;;18.04;100.00;101771.56;5007184;28;20437;-81
2022/06/17 06:08:40;;;;;;;10.80;7.30;;;;;;;18.10;100.00;101773.06;4998653;28;20454;-87
2022/06/17 06:11:14;;;;;;;11.88;7.88;;;;;;;18.01;100.00;101772.97;5008032;28;20438;-85
2022/06/17 06:13:44;;;;;;;12.10;8.57;;;;;;;17.66;100.00;101771.63;5005115;28;20423;-88
2022/06/17 06:16:18;;;;;;;11.98;8.55;;;;;;;17.63;100.00;101773.03;5009731;28;20423;-84
2022/06/17 06:18:57;;;;;;;12.57;8.30;;;;;;;17.70;100.00;101758.09;5015289;28;20513;-85
2022/06/17 06:21:29;;;;;;;13.23;8.18;;;;;;;17.51;100.00;101772.69;5015118;28;20443;-85
2022/06/17 06:23:59;;;;;;;12.57;8.52;;;;;;;17.36;100.00;101772.94;5002482;28;21283;-84
2022/06/17 06:26:32;;;;;;;11.33;7.63;;;;;;;17.86;100.00;101778.72;5011220;28;20435;-88
2022/06/17 06:29:23;;;;;;;10.95;7.03;;;;;;;17.62;100.00;101773.34;5011975;28;20431;-86
2022/06/17 06:31:51;;;;;;;11.50;6.90;;;;;;;17.60;100.00;101783.84;5004993;28;20429;-86
2022/06/17 06:34:46;;;;;;;10.75;7.00;;;;;;;17.38;100.00;101787.25;5006081;28;20430;-86
2022/06/17 06:37:16;;;;;;;9.93;7.00;;;;;;;17.75;100.00;101783.59;5010857;28;20433;-86
2022/06/17 06:39:51;;;;;;;11.07;6.97;;;;;;;17.59;100.00;101787.72;4973979;28;20443;-87
2022/06/17 06:42:19;;;;;;;10.35;6.72;;;;;;;17.77;100.00;101797.06;4997723;28;20957;-86
2022/06/17 06:45:16;;;;;;;9.48;6.10;;;;;;;17.55;100.00;101797.69;5008439;28;20914;-87
2022/06/17 06:47:49;;;;;;;11.05;6.18;;;;;;;17.59;100.00;101779.47;5002522;28;20435;-87
2022/06/17 06:50:29;;;;;;;9.25;6.32;;;;;;;17.71;100.00;101792.75;5004139;28;20434;-83
2022/06/17 06:52:58;;;;;;;10.73;6.00;;;;;;;17.53;100.00;101797.19;4995061;28;20946;-87
2022/06/17 06:55:35;;;;;;;9.27;5.88;;;;;;;17.75;100.00;101789.09;5009114;28;20899;-88
2022/06/17 06:58:07;;;;;;;10.47;5.90;;;;;;;17.61;100.00;101788.25;5020705;28;20438;-87
2022/06/17 07:00:50;;;;;;;8.57;5.63;;;;;;;17.53;100.00;101783.44;4999527;28;20431;-86
2022/06/17 07:03:27;;;;;;;8.30;5.22;;;;;;;17.51;100.00;101789.22;5004175;28;21488;-85
2022/06/17 07:05:59;;;;;;;12.45;5.38;;;;;;;17.86;100.00;101787.00;5004904;28;20427;-87
2022/06/17 07:08:34;;;;;;;9.57;5.10;;;;;;;17.89;100.00;101778.13;5004666;28;20423;-87
2022/06/17 07:11:09;;;;;;;9.15;4.60;;;;;;;18.29;100.00;101775.75;5007355;28;20437;-86
2022/06/17 07:13:37;;;;;;;9.30;5.18;;;;;;;18.02;100.00;101779.28;5008979;28;20435;-87
2022/06/17 07:16:07;;;;;;;7.97;4.73;;;;;;;17.93;100.00;101781.94;5009062;28;20442;-85
2022/06/17 07:18:40;;;;;;;9.25;4.53;;;;;;;17.96;100.00;101775.00;5010565;28;20434;-85
2022/06/17 07:21:15;;;;;;;8.70;4.70;;;;;;;18.04;100.00;101779.00;5008326;28;20419;-85
2022/06/17 07:23:48;;;;;;;9.05;4.80;;;;;;;18.34;100.00;101775.66;5013485;28;20430;-86
2022/06/17 07:26:25;;;;;;;7.40;4.70;;;;;;;18.38;100.00;101780.53;5008473;28;20441;-87
2022/06/17 07:28:58;;;;;;;9.10;5.20;;;;;;;18.31;100.00;101770.75;5012430;28;20450;-87
2022/06/17 07:31:31;;;;;;;10.95;5.05;;;;;;;18.19;100.00;101782.28;5010340;28;20434;-90
2022/06/17 07:34:04;;;;;;;8.85;4.55;;;;;;;18.18;100.00;101777.06;5009162;28;20435;-85
2022/06/17 07:42:21;;;;;;;6.68;4.15;;;;;;;18.52;100.00;101776.66;5006100;28;21847;-86
2022/06/17 07:44:54;;;;;;;7.50;4.57;;;;;;;18.61;100.00;101765.72;5012722;28;20787;-87
2022/06/17 07:47:27;;;;;;;9.40;4.53;;;;;;;18.55;100.00;101766.97;5005477;28;20430;-86
2022/06/17 07:50:01;;;;;;;7.53;4.50;;;;;;;18.45;100.00;101765.25;5008023;28;20454;-86
2022/06/17 07:52:34;;;;;;;8.38;4.40;;;;;;;18.73;100.00;101758.91;5010968;28;20799;-86
2022/06/17 07:55:02;;;;;;;7.60;4.05;;;;;;;18.77;100.00;101766.22;5015168;28;20438;-86
2022/06/17 07:57:32;;;;;;;7.57;4.10;;;;;;;18.89;100.00;101754.69;5011185;28;20922;-88
2022/06/17 08:00:08;;;;;;;7.45;3.95;;;;;;;19.13;100.00;101762.69;5008227;28;20426;-84
2022/06/17 08:02:38;;;;;;;7.85;4.32;;;;;;;18.97;100.00;101761.41;5013497;28;20514;-83
2022/06/17 08:05:12;;;;;;;11.20;6.35;;;;;;;19.02;100.00;101753.81;5006761;28;20435;-83
2022/06/17 08:07:45;;;;;;;11.10;5.70;;;;;;;18.98;100.00;101747.31;5009209;28;20442;-83
2022/06/17 08:10:21;;;;;;;6.33;4.03;;;;;;;19.07;100.00;101738.28;4997317;28;20435;-83
2022/06/17 08:12:51;;;;;;;8.85;4.60;;;;;;;19.32;100.00;101737.69;5001440;28;20427;-84
2022/06/17 08:15:25;;;;;;;7.05;3.80;;;;;;;19.04;100.00;101728.69;5004596;28;20441;-84
2022/06/17 08:17:59;;;;;;;7.78;3.70;;;;;;;19.12;100.00;101736.22;5003594;28;20426;-88
2022/06/17 08:20:30;;;;;;;7.60;3.65;;;;;;;19.29;100.00;101746.59;5001005;28;20434;-85
2022/06/17 08:23:05;;;;;;;6.60;3.72;;;;;;;19.49;100.00;101747.22;5008248;28;20458;-85
2022/06/17 08:25:35;;;;;;;6.63;3.40;;;;;;;19.65;100.00;101751.22;5006596;28;20433;-85
2022/06/17 08:28:11;;;;;;;6.97;2.90;;;;;;;19.81;93.39;101748.88;5009159;28;21151;-82
2022/06/17 08:30:47;;;;;;;5.28;2.70;;;;;;;19.77;88.47;101744.28;5004553;28;20431;-86
2022/06/17 08:33:27;;;;;;;6.10;2.92;;;;;;;19.82;96.09;101739.47;5002648;28;20439;-87
2022/06/17 08:36:06;;;;;;;6.67;3.07;;;;;;;19.97;92.13;101738.25;5007355;28;20454;-86
2022/06/17 08:38:44;;;;;;;5.33;2.83;;;;;;;20.02;97.32;101738.13;4984023;28;20439;-83
2022/06/17 08:41:24;;;;;;;6.70;3.22;;;;;;;20.07;94.78;101734.41;5004598;28;20895;-85
2022/06/17 08:44:18;;;;;;;6.43;3.05;;;;;;;20.07;89.33;101736.34;5002271;28;20430;-85
2022/06/17 08:47:04;;;;;;;6.50;3.00;;;;;;;19.83;83.25;101746.63;4999227;28;21132;-83
2022/06/17 08:49:54;;;;;;;7.30;2.92;;;;;;;20.04;89.91;101723.97;4997346;28;20427;-85
2022/06/17 08:52:41;;;;;;;6.87;2.90;;;;;;;20.05;86.40;101717.31;4999986;28;20423;-87
2022/06/17 08:55:24;;;;;;;6.25;3.00;;;;;;;19.95;88.17;101723.13;4998982;28;20930;-87
2022/06/17 08:58:00;;;;;;;6.07;2.67;;;;;;;20.04;84.90;101712.94;5002998;28;20426;-85
2022/06/17 09:00:43;;;;;;;5.78;2.70;;;;;;;20.15;83.36;101721.72;5006767;28;20431;-84
2022/06/17 09:03:30;;;;;;;7.15;2.90;;;;;;;20.16;90.88;101715.06;5001672;28;20435;-86
2022/06/17 09:06:15;;;;;;;5.43;2.38;;;;;;;20.54;83.16;101711.75;4997949;28;20454;-84
2022/06/17 09:09:11;;;;;;;6.25;2.45;;;;;;;20.72;87.96;101712.63;4996658;28;20438;-85
2022/06/17 09:11:45;;;;;;;4.93;2.60;;;;;;;20.58;81.13;101703.63;4999601;28;20938;-84
2022/06/17 09:14:30;;;;;;;4.17;2.30;;;;;;;20.75;79.30;101708.41;5005525;28;20931;-84
2022/06/17 09:17:19;;;;;;;4.20;1.97;;;;;;;21.04;69.37;101700.25;5004132;28;20458;-86
2022/06/17 09:19:58;;;;;;;4.85;2.17;;;;;;;21.43;79.37;101696.78;5002450;28;21148;-81
2022/06/17 09:22:35;;;;;;;4.65;1.98;;;;;;;21.49;67.64;101699.06;5002863;28;20439;-85
2022/06/17 09:25:14;;;;;;;4.72;1.85;;;;;;;21.31;72.54;101701.06;5002497;28;20540;-84
2022/06/17 09:27:46;;;;;;;4.40;1.80;;;;;;;21.62;70.20;101708.34;4993082;28;20440;-85
2022/06/17 09:30:24;;;;;;;4.07;1.87;;;;;;;21.41;61.25;101686.03;5004171;28;20435;-85
2022/06/17 09:33:07;;;;;;;4.87;1.90;;;;;;;21.25;64.55;101699.56;5007462;28;20518;-87
2022/06/17 09:35:47;;;;;;;4.10;1.95;;;;;;;21.01;71.24;101687.06;5005626;28;20422;-84
2022/06/17 09:38:24;;;;;;;3.80;1.90;;;;;;;21.09;75.51;101715.06;5004545;28;20434;-85
2022/06/17 09:41:02;;;;;;;3.63;1.90;;;;;;;21.10;68.73;101714.75;4981963;28;20439;-86
2022/06/17 09:43:40;;;;;;;3.55;1.80;;;;;;;21.40;78.08;101701.03;5001337;28;20427;-86
2022/06/17 09:46:20;;;;;;;3.83;1.88;;;;;;;21.59;80.14;101703.47;5010369;28;20773;-88
2022/06/17 09:48:57;;;;;;;3.88;1.80;;;;;;;21.79;68.74;101704.69;5012694;28;20442;-87
2022/06/17 09:51:38;;;;;;;4.85;1.80;;;;;;;22.09;72.45;101702.75;5005654;28;20948;-87
2022/06/17 09:54:17;;;;;;;3.63;1.60;;;;;;;21.81;68.29;101712.69;5001394;28;20442;-85
2022/06/17 09:56:54;;;;;;;3.88;1.73;;;;;;;21.78;59.98;101703.06;5001030;28;20466;-88
2022/06/17 09:59:34;;;;;;;5.00;1.67;;;;;;;21.48;62.72;101694.66;5006254;28;20435;-85
2022/06/17 10:02:20;;;;;;;4.35;1.63;;;;;;;21.57;58.26;101703.78;5000871;28;20994;-88
2022/06/17 10:04:51;;;;;;;3.30;1.60;;;;;;;21.83;65.04;101691.78;5005963;28;20498;-87
2022/06/17 10:07:26;;;;;;;3.38;1.63;;;;;;;22.18;69.93;101690.81;5009902;28;20426;-86
2022/06/17 10:10:18;;;;;;;5.47;1.70;;;;;;;22.30;61.75;101698.41;5006464;28;20450;-86
2022/06/17 10:13:00;;;;;;;4.07;1.92;;;;;;;22.09;59.04;101705.53;5024749;28;20931;-87
2022/06/17 10:15:36;;;;;;;4.90;1.90;;;;;;;21.78;54.81;101675.38;5006448;28;21813;-88
2022/06/17 10:18:32;;;;;;;3.80;1.73;;;;;;;21.73;53.89;101694.94;5011270;28;20422;-86
2022/06/17 10:21:21;;;;;;;3.63;1.93;;;;;;;21.86;60.51;101704.16;5010746;28;20438;-88
2022/06/17 10:24:11;;;;;;;2.90;1.50;;;;;;;21.71;63.32;101683.38;5001725;28;20454;-83
2022/06/17 10:26:50;;;;;;;3.85;1.60;;;;;;;22.13;71.61;101691.81;4998758;28;20439;-84
2022/06/17 10:29:43;;;;;;;3.15;1.60;;;;;;;22.06;57.29;101708.97;4995731;28;20423;-87
2022/06/17 10:32:11;;;;;;;3.70;1.90;;;;;;;22.27;69.08;101707.41;4996485;28;20433;-84
2022/06/17 10:34:47;;;;;;;4.70;2.10;;;;;;;22.05;60.50;101685.19;4999287;28;20438;-87
2022/06/17 10:37:22;;;;;;;4.38;1.90;;;;;;;21.99;59.86;101689.28;4998261;28;20423;-87
2022/06/17 10:39:51;;;;;;;4.20;1.80;;;;;;;22.32;58.11;101687.81;4975611;28;20443;-88
2022/06/17 10:42:26;;;;;;;5.93;1.80;;;;;;;22.32;59.96;101693.38;5006985;28;20442;-86
2022/06/17 10:45:01;;;;;;;6.03;1.67;;;;;;;22.24;61.47;101697.81;5002783;28;21559;-85
2022/06/17 10:47:40;;;;;;;5.38;1.80;;;;;;;22.45;63.58;101702.59;4999557;28;20438;-86
2022/06/17 10:50:18;;;;;;;3.58;1.90;;;;;;;22.56;63.27;101695.50;5009010;28;20904;-87
2022/06/17 10:52:56;;;;;;;5.37;1.90;;;;;;;22.72;58.95;101696.53;5011933;28;21049;-87
2022/06/17 10:55:29;;;;;;;3.43;1.80;;;;;;;22.65;53.42;101701.81;5009752;28;20959;-87
2022/06/17 10:58:17;;;;;;;6.57;1.88;;;;;;;22.84;57.03;101690.25;5012883;28;20450;-87
2022/06/17 11:01:00;;;;;;;3.78;1.77;;;;;;;22.86;58.68;101659.38;5005829;28;20423;-88
2022/06/17 11:03:35;;;;;;;5.17;2.03;;;;;;;23.00;54.28;101689.63;5004467;28;21492;-85
2022/06/17 11:06:16;;;;;;;6.27;2.20;;;;;;;22.69;59.52;101691.66;5004320;28;20896;-87
2022/06/17 11:08:55;;;;;;;7.40;2.28;;;;;;;23.03;69.66;101680.59;5007654;28;20434;-87
2022/06/17 11:14:28;;;;;;;3.67;1.90;;;;;;;23.04;58.08;101682.22;5002555;28;20438;-87
2022/06/17 11:17:02;;;;;;;4.32;2.05;;;;;;;23.07;66.90;101684.31;5008355;28;20470;-88
2022/06/17 11:19:31;;;;;;;6.00;2.10;;;;;;;22.98;58.43;101672.47;5006511;28;21661;-87
2022/06/17 11:22:04;;;;;;;5.60;2.20;;;;;;;23.07;62.26;101668.47;5008210;28;20866;-86
2022/06/17 11:24:41;;;;;;;4.30;1.92;;;;;;;22.93;61.42;101667.94;5004969;28;20430;-87
2022/06/17 11:27:23;;;;;;;4.65;2.20;;;;;;;23.00;66.64;101681.28;5003117;28;20988;-87
2022/06/17 11:30:13;;;;;;;4.47;2.17;;;;;;;22.96;65.30;101675.59;5002169;28;20431;-88
2022/06/17 11:32:45;;;;;;;4.43;2.30;;;;;;;22.80;73.99;101675.41;5008840;28;20434;-86
2022/06/17 11:35:29;;;;;;;5.77;2.40;;;;;;;23.16;70.19;101684.25;5006441;28;20915;-86
2022/06/17 11:38:05;;;;;;;4.90;2.50;;;;;;;23.19;63.92;101672.47;5005802;28;20430;-87
2022/06/17 11:40:51;;;;;;;5.85;2.50;;;;;;;23.33;70.95;101666.63;4984735;28;20951;-85
2022/06/17 11:43:31;;;;;;;5.82;2.38;;;;;;;23.19;67.33;101672.47;5002930;28;20443;-84
2022/06/17 11:46:10;;;;;;;4.97;2.70;;;;;;;23.15;62.95;101666.00;5002950;28;20434;-88
2022/06/17 11:48:41;;;;;;;4.63;2.28;;;;;;;23.09;62.80;101670.88;5002971;28;20450;-87
2022/06/17 11:51:18;;;;;;;4.25;2.53;;;;;;;23.02;59.34;101668.69;5007507;28;20437;-87
2022/06/17 11:53:54;;;;;;;5.80;2.60;;;;;;;22.83;60.54;101668.34;5011389;28;20430;-90
2022/06/17 11:56:34;;;;;;;5.35;2.42;;;;;;;23.19;69.17;101664.97;5010160;28;20434;-85
2022/06/17 11:59:12;;;;;;;7.15;2.83;;;;;;;23.30;68.72;101670.06;4999782;28;20434;-88
2022/06/17 12:01:50;;;;;;;4.80;2.47;;;;;;;23.09;69.99;101668.94;5010199;28;20436;-89
2022/06/17 12:04:42;;;;;;;5.95;3.38;;;;;;;22.91;62.83;101668.28;5016950;28;20442;-88
2022/06/17 12:07:33;;;;;;;4.93;2.50;;;;;;;22.79;66.15;101664.63;5017166;28;21041;-90
2022/06/17 12:10:27;;;;;;;4.78;2.50;;;;;;;22.42;63.06;101681.91;5015321;28;20427;-90
2022/06/17 12:13:11;;;;;;;5.70;2.70;;;;;;;22.61;67.67;101675.91;5027336;28;20438;-90
2022/06/17 12:15:43;;;;;;;4.80;2.50;;;;;;;22.45;80.14;101677.63;5010551;28;20442;-86